KDRO

Durango-La Plata County Airport

Durango, Colorado, USA
METAR KDRO 210653Z AUTO 07008KT 10SM CLR 13/M02 A3007 RMK AO2 SLP104 T01281017 402560028 $
Observed Flight Rules
May-21 @ 06:53 UTC (20 minutes ago) Visual Flight Rules
Wind Visibility Clouds
70° at 8 knots 10 miles
  • Clear skies
Temperatures Readings
Current 13°C / 55°F
Dewpoint -2°C / 28°F
Humidity 36%
Altimeter 30.07" Hg
Pressure 1010.4 hPa
Elevation 2035
METAR KDRO 210653Z AUTO 07008KT 10SM CLR 13/M02 A3007 RMK AO2 SLP104 T01281017 402560028 $
Observed Flight Rules
May-21 @ 06:53 UTC
(20 minutes ago)
VFR
Wind Visibility
70° at 8 knots 10 miles
Clouds
  • Clear skies
Temperature Dewpoint
13°C / 55°F -2°C / 28°F
Humidity Altimeter Pressure
36% 30.07" Hg 1010.4 hPa